This is the latest recevied weather packets stored in our database for station/object FW1079. If no packets are shown the sender has not sent any weather packets the latest 10 day(s).
| Time | Temp. | Humidity | Pressure | Rain* | Wind** | Luminosity | Snow |
|---|---|---|---|---|---|---|---|
| 1777833261 | 14.44° C | 66% | 1017 hPa | 0 mm | - | - | - |
| 1777829360 | 19.44° C | 46% | 1017 hPa | 0 mm | - | - | - |
| 1777827561 | 20° C | 43% | 1017 hPa | 0 mm | - | - | - |
| 1777827261 | 20° C | 43% | 1017 hPa | 0 mm | - | - | - |
| 1777826060 | 20.56° C | 42% | 1017 hPa | 0 mm | - | - | - |
| 1777822760 | 22.22° C | 39% | 1017 hPa | 0 mm | - | - | - |
| 1777819164 | 24.44° C | 35% | 1018 hPa | 0 mm | - | - | - |
| 1777818860 | 24.44° C | 36% | 1018 hPa | 0 mm | - | - | - |
| 1777818260 | 23.89° C | 36% | 1018 hPa | 0 mm | - | - | - |
| 1777815260 | 23.89° C | 35% | 1018 hPa | 0 mm | - | - | - |
| 1777814660 | 23.89° C | 36% | 1018 hPa | 0 mm | - | - | - |
| 1777812860 | 24.44° C | 35% | 1018 hPa | 0 mm | - | - | - |
| 1777810161 | 23.89° C | 35% | 1019 hPa | 0 mm | - | - | - |
| 1777807761 | 23.89° C | 38% | 1019 hPa | 0 mm | - | - | - |
| 1777805660 | 23.89° C | 37% | 1019 hPa | 0 mm | - | - | - |
| 1777804161 | 23.33° C | 36% | 1020 hPa | 0 mm | - | - | - |
| 1777794860 | 19.44° C | 45% | 1021.1 hPa | 0 mm | - | - | - |
| 1777794563 | 18.89° C | 45% | 1021.1 hPa | 0 mm | - | - | - |
| 1777793660 | 18.33° C | 49% | 1021.1 hPa | 0 mm | - | - | - |
| 1777793360 | 17.78° C | 51% | 1021.1 hPa | 0 mm | - | - | - |
| 1777793060 | 17.22° C | 53% | 1021.1 hPa | 0 mm | - | - | - |
| 1777786759 | 9.44° C | 73% | 1021.1 hPa | 0 mm | - | - | - |
| 1777784362 | 8.89° C | 74% | 1021.1 hPa | 0 mm | - | - | - |
| 1777784059 | 8.89° C | 75% | 1021.1 hPa | 0 mm | - | - | - |
| 1777782859 | 8.33° C | 76% | 1021.1 hPa | 0 mm | - | - | - |
* Rain latest hour (hover to see other rain measurements)
** Current wind speed in m/s (hover to see current wind gust speed)